Time,TemperatureF,DewpointF,PressureIn,WindDirection,WindDirectionDegrees,WindSpeedMPH,WindSpeedGustMPH,Humidity,HourlyPrecipIn,Conditions,Clouds,dailyrainin,SoftwareType,DateUTC
2013-05-25 00:02:00,50.9,47.5,30.09,South,173,0.0,0.0,88,0.00,,---,0.00,VWS V14.00,2013-05-25 07:02:00,
2013-05-25 00:07:00,50.9,47.5,30.09,South,173,0.0,0.0,88,0.00,,---,0.00,VWS V14.00,2013-05-25 07:07:00,
2013-05-25 00:12:00,50.8,47.4,30.09,South,173,0.0,0.0,88,0.00,,---,0.00,VWS V14.00,2013-05-25 07:12:00,
2013-05-25 00:17:00,50.8,48.0,30.09,South,173,0.0,2.0,90,0.00,,---,0.00,VWS V14.00,2013-05-25 07:17:00,
2013-05-25 00:22:00,50.8,48.0,30.09,SSE,150,0.0,2.0,90,0.00,,---,0.00,VWS V14.00,2013-05-25 07:22:00,
2013-05-25 00:27:00,50.7,47.6,30.08,West,273,0.0,3.0,89,0.00,,---,0.00,VWS V14.00,2013-05-25 07:27:00,
2013-05-25 00:32:00,50.6,47.5,30.08,North,351,0.0,0.0,89,0.00,,---,0.00,VWS V14.00,2013-05-25 07:32:00,
2013-05-25 00:37:00,50.5,47.4,30.08,North,351,0.0,0.0,89,0.00,,---,0.00,VWS V14.00,2013-05-25 07:37:00,
2013-05-25 00:42:00,50.3,47.2,30.08,North,351,0.0,0.0,89,0.00,,---,0.00,VWS V14.00,2013-05-25 07:42:00,
2013-05-25 00:47:00,50.1,47.0,30.08,North,351,0.0,0.0,89,0.00,,---,0.00,VWS V14.00,2013-05-25 07:47:00,
2013-05-25 00:52:00,50.0,46.9,30.08,North,351,0.0,0.0,89,0.00,,---,0.00,VWS V14.00,2013-05-25 07:52:00,
2013-05-25 00:57:00,49.9,47.1,30.08,SE,143,1.0,2.0,90,0.00,,---,0.00,VWS V14.00,2013-05-25 07:57:00,
2013-05-25 01:02:00,49.9,47.4,30.08,SE,146,0.0,2.0,91,0.00,,---,0.00,VWS V14.00,2013-05-25 08:02:00,
2013-05-25 01:07:00,49.8,47.0,30.08,SE,146,0.0,2.0,90,0.00,,---,0.00,VWS V14.00,2013-05-25 08:07:00,
2013-05-25 01:12:00,49.6,46.8,30.08,SE,146,0.0,2.0,90,0.00,,---,0.00,VWS V14.00,2013-05-25 08:12:00,
2013-05-25 01:18:00,49.4,46.9,30.08,SE,146,0.0,2.0,91,0.00,,---,0.00,VWS V14.00,2013-05-25 08:18:00,
2013-05-25 01:23:00,49.3,46.8,30.08,SE,146,0.0,2.0,91,0.00,,---,0.00,VWS V14.00,2013-05-25 08:23:00,
2013-05-25 01:28:00,49.1,46.6,30.08,SE,146,0.0,2.0,91,0.00,,---,0.00,VWS V14.00,2013-05-25 08:28:00,
2013-05-25 01:33:00,48.9,46.7,30.08,SE,146,0.0,0.0,92,0.00,,---,0.00,VWS V14.00,2013-05-25 08:33:00,
2013-05-25 01:38:00,48.8,46.6,30.08,SE,146,0.0,0.0,92,0.00,,---,0.00,VWS V14.00,2013-05-25 08:38:00,
2013-05-25 01:43:00,48.6,46.4,30.08,SE,146,0.0,0.0,92,0.00,,---,0.00,VWS V14.00,2013-05-25 08:43:00,
2013-05-25 01:48:00,48.3,46.1,30.08,SE,146,0.0,0.0,92,0.00,,---,0.00,VWS V14.00,2013-05-25 08:48:00,
2013-05-25 01:53:00,48.1,45.9,30.08,SE,146,0.0,0.0,92,0.00,,---,0.00,VWS V14.00,2013-05-25 08:53:00,
2013-05-25 01:58:00,47.9,45.7,30.08,SE,146,0.0,0.0,92,0.00,,---,0.00,VWS V14.00,2013-05-25 08:58:00,
2013-05-25 02:03:00,47.8,45.9,30.08,SE,146,0.0,0.0,93,0.00,,---,0.00,VWS V14.00,2013-05-25 09:03:00,
2013-05-25 02:08:00,47.7,45.8,30.08,SE,146,0.0,0.0,93,0.00,,---,0.00,VWS V14.00,2013-05-25 09:08:00,
2013-05-25 02:13:00,47.6,45.7,30.08,SE,146,0.0,0.0,93,0.00,,---,0.00,VWS V14.00,2013-05-25 09:13:00,
2013-05-25 02:18:00,47.4,45.5,30.08,SE,146,0.0,0.0,93,0.00,,---,0.00,VWS V14.00,2013-05-25 09:18:00,
2013-05-25 02:23:00,47.5,45.9,30.08,SE,146,0.0,0.0,94,0.00,,---,0.00,VWS V14.00,2013-05-25 09:23:00,
2013-05-25 02:28:00,47.5,45.9,30.08,SE,146,0.0,0.0,94,0.00,,---,0.00,VWS V14.00,2013-05-25 09:28:00,
2013-05-25 02:33:00,47.4,45.8,30.07,SE,146,0.0,0.0,94,0.00,,---,0.00,VWS V14.00,2013-05-25 09:33:00,
2013-05-25 02:38:00,47.4,45.8,30.07,SE,146,0.0,0.0,94,0.00,,---,0.00,VWS V14.00,2013-05-25 09:38:00,
2013-05-25 02:43:00,47.4,46.0,30.08,SE,146,0.0,0.0,95,0.00,,---,0.00,VWS V14.00,2013-05-25 09:43:00,
2013-05-25 02:48:00,47.7,46.3,30.07,SE,146,0.0,2.0,95,0.00,,---,0.00,VWS V14.00,2013-05-25 09:48:00,
2013-05-25 02:53:00,47.9,46.5,30.07,SE,146,2.0,2.0,95,0.00,,---,0.00,VWS V14.00,2013-05-25 09:53:00,
2013-05-25 02:58:00,48.0,46.6,30.07,South,171,1.0,2.0,95,0.00,,---,0.00,VWS V14.00,2013-05-25 09:58:00,
2013-05-25 03:03:00,48.2,46.8,30.07,South,176,0.0,1.0,95,0.00,,---,0.00,VWS V14.00,2013-05-25 10:03:00,
2013-05-25 03:08:00,48.2,46.8,30.07,South,175,1.0,2.0,95,0.00,,---,0.00,VWS V14.00,2013-05-25 10:08:00,
2013-05-25 03:13:00,48.2,46.6,30.07,South,175,1.0,2.0,94,0.00,,---,0.00,VWS V14.00,2013-05-25 10:13:00,
2013-05-25 03:18:00,48.3,46.7,30.07,South,175,2.0,2.0,94,0.00,,---,0.00,VWS V14.00,2013-05-25 10:18:00,
2013-05-25 03:23:00,48.3,46.7,30.07,South,172,0.0,2.0,94,0.00,,---,0.00,VWS V14.00,2013-05-25 10:23:00,
2013-05-25 03:28:00,48.3,46.7,30.07,South,172,0.0,2.0,94,0.00,,---,0.00,VWS V14.00,2013-05-25 10:28:00,
2013-05-25 03:33:00,48.3,46.7,30.07,South,172,0.0,0.0,94,0.00,,---,0.00,VWS V14.00,2013-05-25 10:33:00,
2013-05-25 03:38:00,48.3,46.7,30.07,SSE,159,0.0,1.0,94,0.00,,---,0.00,VWS V14.00,2013-05-25 10:38:00,
2013-05-25 03:43:00,48.3,46.7,30.07,SSE,159,0.0,1.0,94,0.00,,---,0.00,VWS V14.00,2013-05-25 10:43:00,
2013-05-25 03:48:00,48.5,46.9,30.07,SSE,161,2.0,2.0,94,0.00,,---,0.00,VWS V14.00,2013-05-25 10:48:00,
2013-05-25 03:53:00,48.5,46.9,30.07,South,170,2.0,4.0,94,0.00,,---,0.00,VWS V14.00,2013-05-25 10:53:00,
2013-05-25 03:58:00,48.4,46.8,30.07,SSW,205,2.0,4.0,94,0.00,,---,0.00,VWS V14.00,2013-05-25 10:58:00,
2013-05-25 04:03:00,48.5,46.9,30.07,South,175,2.0,2.0,94,0.00,,---,0.00,VWS V14.00,2013-05-25 11:03:00,
2013-05-25 04:08:00,48.5,46.9,30.07,SSE,159,2.0,2.0,94,0.00,,---,0.00,VWS V14.00,2013-05-25 11:08:00,
2013-05-25 04:13:00,48.5,46.9,30.07,SSE,156,1.0,2.0,94,0.00,,---,0.00,VWS V14.00,2013-05-25 11:13:00,
2013-05-25 04:18:00,48.5,46.6,30.07,South,182,2.0,4.0,93,0.00,,---,0.00,VWS V14.00,2013-05-25 11:18:00,
2013-05-25 04:23:00,48.4,46.5,30.07,SSE,161,1.0,4.0,93,0.00,,---,0.00,VWS V14.00,2013-05-25 11:23:00,
2013-05-25 04:28:00,48.4,46.5,30.07,SSE,161,1.0,4.0,93,0.00,,---,0.00,VWS V14.00,2013-05-25 11:28:00,
2013-05-25 04:33:00,48.4,46.8,30.07,SSE,161,1.0,2.0,94,0.00,,---,0.00,VWS V14.00,2013-05-25 11:33:00,
2013-05-25 04:38:00,48.5,46.9,30.07,SSE,161,1.0,2.0,94,0.00,,---,0.00,VWS V14.00,2013-05-25 11:38:00,
2013-05-25 04:43:00,48.4,46.8,30.07,SSE,161,1.0,2.0,94,0.00,,---,0.00,VWS V14.00,2013-05-25 11:43:00,
2013-05-25 04:48:00,48.4,46.5,30.07,SSE,163,1.0,2.0,93,0.00,,---,0.00,VWS V14.00,2013-05-25 11:48:00,
2013-05-25 04:53:00,48.3,46.4,30.07,SSE,164,2.0,4.0,93,0.00,,---,0.00,VWS V14.00,2013-05-25 11:53:00,
2013-05-25 04:58:00,48.3,46.7,30.07,SSE,162,1.0,4.0,94,0.00,,---,0.00,VWS V14.00,2013-05-25 11:58:00,
2013-05-25 05:03:00,48.2,46.3,30.06,SSE,163,2.0,2.0,93,0.00,,---,0.00,VWS V14.00,2013-05-25 12:03:00,
2013-05-25 05:08:00,48.2,46.3,30.06,SSE,163,2.0,2.0,93,0.00,,---,0.00,VWS V14.00,2013-05-25 12:08:00,
2013-05-25 05:13:00,48.2,46.3,30.07,SSE,163,2.0,2.0,93,0.00,,---,0.00,VWS V14.00,2013-05-25 12:13:00,
2013-05-25 05:18:00,48.1,46.2,30.07,SSE,163,2.0,2.0,93,0.00,,---,0.00,VWS V14.00,2013-05-25 12:18:00,
2013-05-25 05:23:00,48.1,46.2,30.07,SSE,163,1.0,2.0,93,0.00,,---,0.00,VWS V14.00,2013-05-25 12:23:00,
2013-05-25 05:28:00,48.1,46.2,30.07,SSE,163,0.0,2.0,93,0.00,,---,0.00,VWS V14.00,2013-05-25 12:28:00,
2013-05-25 05:33:00,48.1,46.5,30.07,South,184,0.0,2.0,94,0.00,,---,0.00,VWS V14.00,2013-05-25 12:33:00,
2013-05-25 05:38:00,48.1,46.2,30.07,South,169,2.0,5.0,93,0.00,,---,0.00,VWS V14.00,2013-05-25 12:38:00,
2013-05-25 05:43:00,48.1,46.2,30.07,SSE,167,1.0,5.0,93,0.00,,---,0.00,VWS V14.00,2013-05-25 12:43:00,
2013-05-25 05:48:00,48.1,46.2,30.07,SSE,148,2.0,5.0,93,0.00,,---,0.00,VWS V14.00,2013-05-25 12:48:00,
2013-05-25 05:53:00,48.1,46.2,30.07,SSE,148,1.0,5.0,93,0.00,,---,0.00,VWS V14.00,2013-05-25 12:53:00,
2013-05-25 05:58:00,48.1,46.2,30.06,SSE,168,0.0,5.0,93,0.00,,---,0.00,VWS V14.00,2013-05-25 12:58:00,
2013-05-25 06:03:00,48.1,46.2,30.07,South,173,0.0,2.0,93,0.00,,---,0.00,VWS V14.00,2013-05-25 13:03:00,
2013-05-25 06:08:00,48.2,46.3,30.06,SSE,152,1.0,2.0,93,0.00,,---,0.00,VWS V14.00,2013-05-25 13:08:00,
2013-05-25 06:13:00,48.1,46.2,30.07,SE,140,0.0,2.0,93,0.00,,---,0.00,VWS V14.00,2013-05-25 13:13:00,
2013-05-25 06:18:00,48.1,46.2,30.06,SE,141,1.0,2.0,93,0.00,,---,0.00,VWS V14.00,2013-05-25 13:18:00,
2013-05-25 06:23:00,48.2,46.3,30.07,SE,144,1.0,2.0,93,0.00,,---,0.00,VWS V14.00,2013-05-25 13:23:00,
2013-05-25 06:28:00,48.1,46.2,30.06,SSE,163,2.0,4.0,93,0.00,,---,0.00,VWS V14.00,2013-05-25 13:28:00,
2013-05-25 06:33:00,48.2,46.3,30.06,South,170,1.0,2.0,93,0.00,,---,0.00,VWS V14.00,2013-05-25 13:33:00,
2013-05-25 06:38:00,48.1,46.2,30.07,SSW,198,1.0,3.0,93,0.00,,---,0.00,VWS V14.00,2013-05-25 13:38:00,
2013-05-25 06:43:00,48.1,46.2,30.07,South,175,1.0,3.0,93,0.00,,---,0.00,VWS V14.00,2013-05-25 13:43:00,
2013-05-25 06:48:00,48.1,46.2,30.07,SSE,165,2.0,4.0,93,0.00,,---,0.00,VWS V14.00,2013-05-25 13:48:00,
2013-05-25 06:53:00,48.1,46.2,30.07,South,169,2.0,5.0,93,0.00,,---,0.00,VWS V14.00,2013-05-25 13:53:00,
2013-05-25 06:58:00,48.2,46.3,30.07,SSE,151,4.0,5.0,93,0.00,,---,0.00,VWS V14.00,2013-05-25 13:58:00,
2013-05-25 07:03:00,48.2,46.3,30.07,South,190,1.0,4.0,93,0.00,,---,0.00,VWS V14.00,2013-05-25 14:03:00,
2013-05-25 07:08:00,48.2,46.3,30.07,SSE,148,2.0,5.0,93,0.00,,---,0.00,VWS V14.00,2013-05-25 14:08:00,
2013-05-25 07:13:00,48.4,46.5,30.07,WSW,242,1.0,5.0,93,0.00,,---,0.00,VWS V14.00,2013-05-25 14:13:00,
2013-05-25 07:18:00,48.4,46.5,30.07,SW,235,0.0,5.0,93,0.00,,---,0.00,VWS V14.00,2013-05-25 14:18:00,
2013-05-25 07:23:00,48.5,46.6,30.07,SSE,154,4.0,5.0,93,0.00,,---,0.00,VWS V14.00,2013-05-25 14:23:00,
2013-05-25 07:28:00,48.6,46.7,30.07,South,173,2.0,5.0,93,0.00,,---,0.00,VWS V14.00,2013-05-25 14:28:00,
2013-05-25 07:33:00,48.6,46.4,30.07,SSE,160,4.0,4.0,92,0.00,,---,0.00,VWS V14.00,2013-05-25 14:33:00,
2013-05-25 07:38:00,48.6,46.4,30.07,SSE,159,1.0,4.0,92,0.00,,---,0.00,VWS V14.00,2013-05-25 14:38:00,
2013-05-25 07:43:00,48.8,46.6,30.07,South,189,2.0,5.0,92,0.00,,---,0.00,VWS V14.00,2013-05-25 14:43:00,
2013-05-25 07:48:00,49.0,46.8,30.07,SSE,161,4.0,6.0,92,0.00,,---,0.00,VWS V14.00,2013-05-25 14:48:00,
2013-05-25 07:53:00,49.2,47.0,30.07,South,182,1.0,7.0,92,0.00,,---,0.00,VWS V14.00,2013-05-25 14:53:00,
2013-05-25 07:58:00,49.5,47.3,30.07,SSW,213,3.0,7.0,92,0.00,,---,0.00,VWS V14.00,2013-05-25 14:58:00,
2013-05-25 08:03:00,49.6,47.1,30.07,South,171,5.0,6.0,91,0.00,,---,0.00,VWS V14.00,2013-05-25 15:03:00,
2013-05-25 08:08:00,49.9,47.7,30.07,ENE,60,2.0,6.0,92,0.00,,---,0.00,VWS V14.00,2013-05-25 15:08:00,
2013-05-25 08:13:00,50.3,47.8,30.07,South,182,1.0,6.0,91,0.00,,---,0.00,VWS V14.00,2013-05-25 15:13:00,
2013-05-25 08:18:00,50.5,47.7,30.07,South,190,1.0,6.0,90,0.00,,---,0.00,VWS V14.00,2013-05-25 15:18:00,
2013-05-25 08:23:00,50.6,47.8,30.07,SSW,211,4.0,6.0,90,0.00,,---,0.00,VWS V14.00,2013-05-25 15:23:00,
2013-05-25 08:28:00,50.8,48.0,30.07,West,269,2.0,6.0,90,0.00,,---,0.00,VWS V14.00,2013-05-25 15:28:00,
2013-05-25 08:34:00,50.9,47.8,30.07,SW,233,3.0,4.0,89,0.00,,---,0.00,VWS V14.00,2013-05-25 15:34:00,
2013-05-25 08:39:00,50.9,47.8,30.07,SSW,207,2.0,6.0,89,0.00,,---,0.00,VWS V14.00,2013-05-25 15:39:00,
2013-05-25 08:44:00,51.0,47.9,30.07,SW,228,4.0,6.0,89,0.00,,---,0.00,VWS V14.00,2013-05-25 15:44:00,
2013-05-25 08:49:00,51.2,48.1,30.07,SSE,153,4.0,6.0,89,0.00,,---,0.00,VWS V14.00,2013-05-25 15:49:00,
2013-05-25 08:54:00,51.3,47.9,30.07,SSW,198,3.0,6.0,88,0.00,,---,0.00,VWS V14.00,2013-05-25 15:54:00,
2013-05-25 08:59:00,51.4,48.0,30.07,SSW,199,3.0,6.0,88,0.00,,---,0.00,VWS V14.00,2013-05-25 15:59:00,
2013-05-25 09:04:00,51.5,48.1,30.07,SSE,155,4.0,5.0,88,0.00,,---,0.00,VWS V14.00,2013-05-25 16:04:00,
2013-05-25 09:09:00,51.5,47.5,30.07,SSE,160,2.0,8.0,86,0.00,,---,0.00,VWS V14.00,2013-05-25 16:09:00,
2013-05-25 09:14:00,51.5,47.8,30.07,South,185,4.0,8.0,87,0.00,,---,0.00,VWS V14.00,2013-05-25 16:14:00,
2013-05-25 09:19:00,51.5,47.5,30.07,SSE,157,5.0,8.0,86,0.00,,---,0.00,VWS V14.00,2013-05-25 16:19:00,
2013-05-25 09:24:00,51.7,47.7,30.06,SSE,162,4.0,8.0,86,0.00,,---,0.00,VWS V14.00,2013-05-25 16:24:00,
2013-05-25 09:29:00,51.8,47.4,30.06,SSE,160,2.0,8.0,85,0.00,,---,0.00,VWS V14.00,2013-05-25 16:29:00,
2013-05-25 09:34:00,52.1,48.4,30.06,SSW,211,2.0,5.0,87,0.00,,---,0.00,VWS V14.00,2013-05-25 16:34:00,
2013-05-25 09:39:00,52.3,47.9,30.06,SSE,160,2.0,7.0,85,0.00,,---,0.00,VWS V14.00,2013-05-25 16:39:00,
2013-05-25 09:44:00,52.8,48.4,30.06,SSW,194,4.0,8.0,85,0.00,,---,0.00,VWS V14.00,2013-05-25 16:44:00,
2013-05-25 09:49:00,53.2,48.2,30.06,SSW,213,3.0,8.0,83,0.00,,---,0.00,VWS V14.00,2013-05-25 16:49:00,
2013-05-25 09:54:00,53.3,47.6,30.06,SSW,202,4.0,8.0,81,0.00,,---,0.00,VWS V14.00,2013-05-25 16:54:00,
2013-05-25 09:59:00,53.3,48.0,30.06,South,189,6.0,8.0,82,0.00,,---,0.00,VWS V14.00,2013-05-25 16:59:00,
2013-05-25 10:04:00,53.3,48.3,30.05,South,171,1.0,7.0,83,0.00,,---,0.00,VWS V14.00,2013-05-25 17:04:00,
2013-05-25 10:09:00,53.7,48.3,30.06,SW,216,2.0,7.0,82,0.00,,---,0.00,VWS V14.00,2013-05-25 17:09:00,
2013-05-25 10:14:00,54.0,48.6,30.05,SSE,150,4.0,7.0,82,0.00,,---,0.00,VWS V14.00,2013-05-25 17:14:00,
2013-05-25 10:19:00,54.0,48.0,30.05,SSE,159,4.0,8.0,80,0.00,,---,0.00,VWS V14.00,2013-05-25 17:19:00,
2013-05-25 10:24:00,54.2,48.5,30.05,SSW,207,3.0,8.0,81,0.00,,---,0.00,VWS V14.00,2013-05-25 17:24:00,
2013-05-25 10:29:00,54.5,47.8,30.05,South,187,4.0,8.0,78,0.00,,---,0.00,VWS V14.00,2013-05-25 17:29:00,
2013-05-25 10:34:00,54.8,48.4,30.05,SSE,156,2.0,7.0,79,0.00,,---,0.00,VWS V14.00,2013-05-25 17:34:00,
2013-05-25 10:39:00,55.0,49.0,30.05,SSE,155,4.0,10.0,80,0.00,,---,0.00,VWS V14.00,2013-05-25 17:39:00,
2013-05-25 10:44:00,55.4,48.3,30.05,SE,146,6.0,10.0,77,0.00,,---,0.00,VWS V14.00,2013-05-25 17:44:00,
2013-05-25 10:49:00,55.5,48.4,30.05,SSW,193,6.0,10.0,77,0.00,,---,0.00,VWS V14.00,2013-05-25 17:49:00,
2013-05-25 10:54:00,55.7,48.6,30.05,SW,215,3.0,10.0,77,0.00,,---,0.00,VWS V14.00,2013-05-25 17:54:00,
2013-05-25 10:59:00,55.9,48.1,30.05,South,188,3.0,10.0,75,0.00,,---,0.00,VWS V14.00,2013-05-25 17:59:00,
2013-05-25 11:04:00,56.0,48.5,30.05,South,173,5.0,7.0,76,0.00,,---,0.00,VWS V14.00,2013-05-25 18:04:00,
2013-05-25 11:09:00,55.8,48.4,30.04,SE,145,2.0,8.0,76,0.00,,---,0.00,VWS V14.00,2013-05-25 18:09:00,
2013-05-25 11:14:00,55.9,48.8,30.04,SSE,150,5.0,12.0,77,0.00,,---,0.00,VWS V14.00,2013-05-25 18:14:00,
2013-05-25 11:19:00,56.2,48.8,30.04,SSW,200,4.0,12.0,76,0.00,,---,0.00,VWS V14.00,2013-05-25 18:19:00,
2013-05-25 11:24:00,56.2,48.8,30.04,South,186,2.0,12.0,76,0.00,,---,0.00,VWS V14.00,2013-05-25 18:24:00,
2013-05-25 11:29:00,56.3,48.1,30.04,SW,223,2.0,12.0,74,0.00,,---,0.00,VWS V14.00,2013-05-25 18:29:00,
2013-05-25 11:34:00,56.4,48.6,30.04,SE,144,4.0,8.0,75,0.00,,---,0.00,VWS V14.00,2013-05-25 18:34:00,
2013-05-25 11:39:00,56.6,48.4,30.04,SSW,204,0.0,8.0,74,0.00,,---,0.00,VWS V14.00,2013-05-25 18:39:00,
2013-05-25 11:44:00,57.1,49.6,30.04,SSW,196,2.0,8.0,76,0.00,,---,0.00,VWS V14.00,2013-05-25 18:44:00,
2013-05-25 11:49:00,57.4,48.8,30.04,SW,218,2.0,8.0,73,0.00,,---,0.00,VWS V14.00,2013-05-25 18:49:00,
2013-05-25 11:54:00,57.7,49.1,30.04,South,188,2.0,12.0,73,0.00,,---,0.00,VWS V14.00,2013-05-25 18:54:00,
2013-05-25 11:59:00,57.8,49.2,30.04,South,184,2.0,12.0,73,0.00,,---,0.00,VWS V14.00,2013-05-25 18:59:00,
2013-05-25 12:04:00,58.0,49.4,30.04,SSW,200,6.0,8.0,73,0.00,,---,0.00,VWS V14.00,2013-05-25 19:04:00,
2013-05-25 12:09:00,58.1,49.1,30.04,SSW,213,4.0,8.0,72,0.00,,---,0.00,VWS V14.00,2013-05-25 19:09:00,
2013-05-25 12:14:00,58.3,49.3,30.04,SW,221,3.0,8.0,72,0.00,,---,0.00,VWS V14.00,2013-05-25 19:14:00,
2013-05-25 12:19:00,58.5,48.4,30.03,South,182,3.0,8.0,69,0.00,,---,0.00,VWS V14.00,2013-05-25 19:19:00,
2013-05-25 12:24:00,58.8,48.7,30.04,South,179,4.0,8.0,69,0.00,,---,0.00,VWS V14.00,2013-05-25 19:24:00,
2013-05-25 12:29:00,59.2,49.4,30.03,SSE,164,1.0,8.0,70,0.00,,---,0.00,VWS V14.00,2013-05-25 19:29:00,
2013-05-25 12:34:00,59.3,48.8,30.03,SSE,163,5.0,10.0,68,0.00,,---,0.00,VWS V14.00,2013-05-25 19:34:00,
2013-05-25 12:39:00,59.1,49.0,30.03,South,178,6.0,10.0,69,0.00,,---,0.00,VWS V14.00,2013-05-25 19:39:00,
2013-05-25 12:44:00,59.1,47.8,30.03,SW,223,2.0,10.0,66,0.00,,---,0.00,VWS V14.00,2013-05-25 19:44:00,
2013-05-25 12:49:00,59.5,48.2,30.03,SE,136,2.0,10.0,66,0.00,,---,0.00,VWS V14.00,2013-05-25 19:49:00,
2013-05-25 12:54:00,59.8,48.8,30.03,SSE,167,6.0,10.0,67,0.00,,---,0.00,VWS V14.00,2013-05-25 19:54:00,
2013-05-25 12:59:00,59.9,49.7,30.03,SE,140,8.0,10.0,69,0.00,,---,0.00,VWS V14.00,2013-05-25 19:59:00,
2013-05-25 13:04:00,60.3,49.3,30.02,South,186,3.0,7.0,67,0.00,,---,0.00,VWS V14.00,2013-05-25 20:04:00,
2013-05-25 13:09:00,60.4,48.2,30.02,South,182,5.0,10.0,64,0.00,,---,0.00,VWS V14.00,2013-05-25 20:09:00,
2013-05-25 13:14:00,60.3,48.5,30.02,SSE,160,9.0,11.0,65,0.00,,---,0.00,VWS V14.00,2013-05-25 20:14:00,
2013-05-25 13:19:00,60.6,48.8,30.02,South,182,2.0,11.0,65,0.00,,---,0.00,VWS V14.00,2013-05-25 20:19:00,
2013-05-25 13:25:00,60.7,48.5,30.02,South,171,1.0,11.0,64,0.00,,---,0.00,VWS V14.00,2013-05-25 20:25:00,
2013-05-25 13:30:00,60.7,48.0,30.02,SSE,166,4.0,11.0,63,0.00,,---,0.00,VWS V14.00,2013-05-25 20:30:00,
2013-05-25 13:35:00,60.9,49.5,30.02,SW,218,4.0,7.0,66,0.00,,---,0.00,VWS V14.00,2013-05-25 20:35:00,
2013-05-25 13:40:00,61.3,48.2,30.01,South,173,4.0,9.0,62,0.00,,---,0.00,VWS V14.00,2013-05-25 20:40:00,
2013-05-25 13:45:00,61.5,49.2,30.01,SSW,209,7.0,9.0,64,0.00,,---,0.00,VWS V14.00,2013-05-25 20:45:00,
2013-05-25 13:50:00,61.7,49.0,30.01,West,263,3.0,9.0,63,0.00,,---,0.00,VWS V14.00,2013-05-25 20:50:00,
2013-05-25 13:55:00,62.0,49.3,30.01,SW,227,5.0,9.0,63,0.00,,---,0.00,VWS V14.00,2013-05-25 20:55:00,
2013-05-25 14:00:00,62.2,48.2,30.01,South,185,7.0,9.0,60,0.00,,---,0.00,VWS V14.00,2013-05-25 21:00:00,
2013-05-25 14:05:00,62.2,48.6,30.01,SSW,194,1.0,5.0,61,0.00,,---,0.00,VWS V14.00,2013-05-25 21:05:00,
2013-05-25 14:10:00,62.3,48.2,30.01,SE,137,7.0,8.0,60,0.00,,---,0.00,VWS V14.00,2013-05-25 21:10:00,
2013-05-25 14:15:00,62.3,47.8,30.01,South,176,2.0,9.0,59,0.00,,---,0.00,VWS V14.00,2013-05-25 21:15:00,
2013-05-25 14:20:00,62.8,47.8,30.00,SSW,197,4.0,9.0,58,0.00,,---,0.00,VWS V14.00,2013-05-25 21:20:00,
2013-05-25 14:25:00,63.1,47.2,30.00,South,180,5.0,9.0,56,0.00,,---,0.00,VWS V14.00,2013-05-25 21:25:00,
2013-05-25 14:30:00,63.2,46.8,30.00,WSW,255,4.0,9.0,55,0.00,,---,0.00,VWS V14.00,2013-05-25 21:30:00,
2013-05-25 14:35:00,63.5,48.0,30.00,South,188,6.0,8.0,57,0.00,,---,0.00,VWS V14.00,2013-05-25 21:35:00,
2013-05-25 14:40:00,63.5,47.5,30.00,SSE,150,6.0,10.0,56,0.00,,---,0.00,VWS V14.00,2013-05-25 21:40:00,
2013-05-25 14:45:00,63.7,48.2,29.99,SW,218,3.0,10.0,57,0.00,,---,0.00,VWS V14.00,2013-05-25 21:45:00,
2013-05-25 14:50:00,63.8,47.8,29.99,SSE,167,2.0,10.0,56,0.00,,---,0.00,VWS V14.00,2013-05-25 21:50:00,
2013-05-25 14:55:00,63.8,47.3,29.99,SSW,209,5.0,10.0,55,0.00,,---,0.00,VWS V14.00,2013-05-25 21:55:00,
2013-05-25 15:00:00,63.9,47.0,29.99,South,188,4.0,10.0,54,0.00,,---,0.00,VWS V14.00,2013-05-25 22:00:00,
2013-05-25 15:05:00,64.0,47.0,29.99,SE,132,4.0,6.0,54,0.00,,---,0.00,VWS V14.00,2013-05-25 22:05:00,
2013-05-25 15:10:00,64.0,47.0,29.99,South,178,4.0,6.0,54,0.00,,---,0.00,VWS V14.00,2013-05-25 22:10:00,
2013-05-25 15:15:00,63.8,46.8,29.99,SW,226,7.0,7.0,54,0.00,,---,0.00,VWS V14.00,2013-05-25 22:15:00,
2013-05-25 15:20:00,64.0,47.5,29.99,South,191,3.0,8.0,55,0.00,,---,0.00,VWS V14.00,2013-05-25 22:20:00,
2013-05-25 15:25:00,64.2,47.2,29.98,South,171,2.0,8.0,54,0.00,,---,0.00,VWS V14.00,2013-05-25 22:25:00,
2013-05-25 15:30:00,64.4,46.9,29.98,SSW,196,1.0,8.0,53,0.00,,---,0.00,VWS V14.00,2013-05-25 22:30:00,
2013-05-25 15:35:00,64.7,48.2,29.98,SSE,148,4.0,8.0,55,0.00,,---,0.00,VWS V14.00,2013-05-25 22:35:00,
2013-05-25 15:40:00,64.9,47.9,29.98,SE,141,1.0,8.0,54,0.00,,---,0.00,VWS V14.00,2013-05-25 22:40:00,
2013-05-25 15:45:00,65.0,47.0,29.98,SSW,194,3.0,8.0,52,0.00,,---,0.00,VWS V14.00,2013-05-25 22:45:00,
2013-05-25 15:50:00,65.1,47.1,29.98,SE,146,1.0,8.0,52,0.00,,---,0.00,VWS V14.00,2013-05-25 22:50:00,
2013-05-25 15:55:00,65.1,47.6,29.97,SSE,152,1.0,9.0,53,0.00,,---,0.00,VWS V14.00,2013-05-25 22:55:00,
2013-05-25 16:00:00,65.5,47.4,29.97,SSW,208,3.0,9.0,52,0.00,,---,0.00,VWS V14.00,2013-05-25 23:00:00,
2013-05-25 16:05:00,65.7,46.0,29.97,SW,229,4.0,6.0,49,0.00,,---,0.00,VWS V14.00,2013-05-25 23:05:00,
2013-05-25 16:10:00,65.8,48.2,29.97,East,80,1.0,6.0,53,0.00,,---,0.00,VWS V14.00,2013-05-25 23:10:00,
2013-05-25 16:15:00,66.0,46.3,29.97,South,185,4.0,7.0,49,0.00,,---,0.00,VWS V14.00,2013-05-25 23:15:00,
2013-05-25 16:20:00,65.8,45.0,29.97,SSW,211,3.0,7.0,47,0.00,,---,0.00,VWS V14.00,2013-05-25 23:20:00,
2013-05-25 16:25:00,65.9,44.6,29.97,SSW,213,3.0,7.0,46,0.00,,---,0.00,VWS V14.00,2013-05-25 23:25:00,
2013-05-25 16:30:00,65.9,44.0,29.97,SSW,194,2.0,7.0,45,0.00,,---,0.00,VWS V14.00,2013-05-25 23:30:00,
2013-05-25 16:35:00,66.1,45.9,29.96,West,267,3.0,4.0,48,0.00,,---,0.00,VWS V14.00,2013-05-25 23:35:00,
2013-05-25 16:40:00,66.2,44.2,29.96,SE,134,2.0,6.0,45,0.00,,---,0.00,VWS V14.00,2013-05-25 23:40:00,
2013-05-25 16:45:00,66.1,45.3,29.96,SE,140,2.0,9.0,47,0.00,,---,0.00,VWS V14.00,2013-05-25 23:45:00,
2013-05-25 16:50:00,66.6,45.8,29.96,SSE,160,2.0,9.0,47,0.00,,---,0.00,VWS V14.00,2013-05-25 23:50:00,
2013-05-25 16:55:00,66.7,47.0,29.96,SSE,151,2.0,9.0,49,0.00,,---,0.00,VWS V14.00,2013-05-25 23:55:00,
2013-05-25 17:00:00,66.6,46.3,29.96,South,184,3.0,9.0,48,0.00,,---,0.00,VWS V14.00,2013-05-26 00:00:00,
2013-05-25 17:05:00,66.5,45.7,29.96,South,188,2.0,5.0,47,0.00,,---,0.00,VWS V14.00,2013-05-26 00:05:00,
2013-05-25 17:10:00,66.3,46.6,29.96,SSE,165,2.0,6.0,49,0.00,,---,0.00,VWS V14.00,2013-05-26 00:10:00,
2013-05-25 17:15:00,66.1,46.4,29.96,South,191,4.0,6.0,49,0.00,,---,0.00,VWS V14.00,2013-05-26 00:15:00,
2013-05-25 17:20:00,66.0,45.8,29.96,South,172,2.0,6.0,48,0.00,,---,0.00,VWS V14.00,2013-05-26 00:20:00,
2013-05-25 17:25:00,66.0,45.2,29.96,South,175,2.0,6.0,47,0.00,,---,0.00,VWS V14.00,2013-05-26 00:25:00,
2013-05-25 17:30:00,66.2,46.0,29.96,SSW,203,1.0,6.0,48,0.00,,---,0.00,VWS V14.00,2013-05-26 00:30:00,
2013-05-25 17:35:00,66.3,44.9,29.96,South,177,1.0,4.0,46,0.00,,---,0.00,VWS V14.00,2013-05-26 00:35:00,
2013-05-25 17:40:00,66.4,45.6,29.95,South,175,4.0,5.0,47,0.00,,---,0.00,VWS V14.00,2013-05-26 00:40:00,
2013-05-25 17:45:00,66.3,46.0,29.95,South,169,2.0,5.0,48,0.00,,---,0.00,VWS V14.00,2013-05-26 00:45:00,
2013-05-25 17:50:00,66.3,46.6,29.95,WSW,252,2.0,5.0,49,0.00,,---,0.00,VWS V14.00,2013-05-26 00:50:00,
2013-05-25 17:55:00,66.1,45.9,29.95,South,189,1.0,5.0,48,0.00,,---,0.00,VWS V14.00,2013-05-26 00:55:00,
2013-05-25 18:00:00,66.0,47.9,29.95,South,170,1.0,5.0,52,0.00,,---,0.00,VWS V14.00,2013-05-26 01:00:00,
2013-05-25 18:06:00,66.0,46.8,29.95,North,360,0.0,3.0,50,0.00,,---,0.00,VWS V14.00,2013-05-26 01:06:00,
2013-05-25 18:11:00,66.0,46.8,29.94,WNW,283,0.0,3.0,50,0.00,,---,0.00,VWS V14.00,2013-05-26 01:11:00,
2013-05-25 18:16:00,66.0,46.8,29.95,SSW,198,0.0,3.0,50,0.00,,---,0.00,VWS V14.00,2013-05-26 01:16:00,
2013-05-25 18:21:00,66.0,50.8,29.94,SSW,198,0.0,3.0,58,0.00,,---,0.00,VWS V14.00,2013-05-26 01:21:00,
2013-05-25 18:26:00,65.9,49.3,29.94,SSW,198,1.0,3.0,55,0.00,,---,0.00,VWS V14.00,2013-05-26 01:26:00,
2013-05-25 18:31:00,65.8,48.2,29.94,South,188,3.0,4.0,53,0.00,,---,0.00,VWS V14.00,2013-05-26 01:31:00,
2013-05-25 18:36:00,65.6,47.5,29.94,South,188,0.0,2.0,52,0.00,,---,0.00,VWS V14.00,2013-05-26 01:36:00,
2013-05-25 18:41:00,65.6,48.0,29.94,South,188,1.0,2.0,53,0.00,,---,0.00,VWS V14.00,2013-05-26 01:41:00,
2013-05-25 18:46:00,65.5,47.9,29.94,South,188,1.0,3.0,53,0.00,,---,0.00,VWS V14.00,2013-05-26 01:46:00,
2013-05-25 18:51:00,65.5,51.3,29.94,South,188,0.0,3.0,60,0.00,,---,0.00,VWS V14.00,2013-05-26 01:51:00,
2013-05-25 18:56:00,65.5,51.3,29.94,South,188,0.0,3.0,60,0.00,,---,0.00,VWS V14.00,2013-05-26 01:56:00,
2013-05-25 19:01:00,65.7,52.8,29.94,South,188,0.0,3.0,63,0.00,,---,0.00,VWS V14.00,2013-05-26 02:01:00,
2013-05-25 19:06:00,65.7,51.9,29.93,South,188,0.0,0.0,61,0.00,,---,0.00,VWS V14.00,2013-05-26 02:06:00,
2013-05-25 19:11:00,65.5,51.3,29.93,South,188,1.0,2.0,60,0.00,,---,0.00,VWS V14.00,2013-05-26 02:11:00,
2013-05-25 19:16:00,65.3,51.1,29.93,SSW,200,2.0,3.0,60,0.00,,---,0.00,VWS V14.00,2013-05-26 02:16:00,
2013-05-25 19:21:00,65.2,52.3,29.93,South,189,0.0,3.0,63,0.00,,---,0.00,VWS V14.00,2013-05-26 02:21:00,
2013-05-25 19:26:00,65.0,53.8,29.93,South,189,0.0,3.0,67,0.00,,---,0.00,VWS V14.00,2013-05-26 02:26:00,
2013-05-25 19:31:00,64.6,53.8,29.93,South,189,0.0,3.0,68,0.00,,---,0.00,VWS V14.00,2013-05-26 02:31:00,
2013-05-25 19:36:00,64.3,53.5,29.93,South,189,0.0,0.0,68,0.00,,---,0.00,VWS V14.00,2013-05-26 02:36:00,
2013-05-25 19:41:00,64.0,54.4,29.93,South,189,0.0,1.0,71,0.00,,---,0.00,VWS V14.00,2013-05-26 02:41:00,
2013-05-25 19:46:00,63.8,54.2,29.93,South,189,0.0,1.0,71,0.00,,---,0.00,VWS V14.00,2013-05-26 02:46:00,
2013-05-25 19:51:00,63.6,53.7,29.94,South,189,0.0,1.0,70,0.00,,---,0.00,VWS V14.00,2013-05-26 02:51:00,
2013-05-25 19:56:00,63.5,53.2,29.94,South,189,0.0,1.0,69,0.00,,---,0.00,VWS V14.00,2013-05-26 02:56:00,
2013-05-25 20:01:00,63.3,52.2,29.94,SSW,192,0.0,1.0,67,0.00,,---,0.00,VWS V14.00,2013-05-26 03:01:00,
2013-05-25 20:06:00,63.1,52.8,29.94,North,360,1.0,2.0,69,0.00,,---,0.00,VWS V14.00,2013-05-26 03:06:00,
2013-05-25 20:11:00,62.9,52.6,29.93,NE,44,0.0,2.0,69,0.00,,---,0.00,VWS V14.00,2013-05-26 03:11:00,
2013-05-25 20:16:00,62.7,53.2,29.93,NE,52,0.0,2.0,71,0.00,,---,0.00,VWS V14.00,2013-05-26 03:16:00,
2013-05-25 20:21:00,62.4,52.9,29.93,NE,52,0.0,2.0,71,0.00,,---,0.00,VWS V14.00,2013-05-26 03:21:00,
2013-05-25 20:26:00,62.2,53.1,29.93,NE,46,1.0,2.0,72,0.00,,---,0.00,VWS V14.00,2013-05-26 03:26:00,
2013-05-25 20:31:00,61.9,52.8,29.93,NE,46,0.0,2.0,72,0.00,,---,0.00,VWS V14.00,2013-05-26 03:31:00,
2013-05-25 20:36:00,61.7,53.0,29.93,NE,46,1.0,2.0,73,0.00,,---,0.00,VWS V14.00,2013-05-26 03:36:00,
2013-05-25 20:41:00,61.4,53.4,29.93,NNE,15,0.0,2.0,75,0.00,,---,0.00,VWS V14.00,2013-05-26 03:41:00,
2013-05-25 20:46:00,61.1,52.8,29.93,NNE,16,1.0,2.0,74,0.00,,---,0.00,VWS V14.00,2013-05-26 03:46:00,
2013-05-25 20:51:00,60.8,52.8,29.93,NNE,16,1.0,2.0,75,0.00,,---,0.00,VWS V14.00,2013-05-26 03:51:00,
2013-05-25 20:56:00,60.6,52.6,29.93,NNE,16,0.0,2.0,75,0.00,,---,0.00,VWS V14.00,2013-05-26 03:56:00,
2013-05-25 21:01:00,60.5,52.9,29.93,NNE,16,0.0,2.0,76,0.00,,---,0.00,VWS V14.00,2013-05-26 04:01:00,
2013-05-25 21:02:00,60.4,52.8,29.93,NNE,16,0.0,2.0,76,0.00,,---,0.00,VWS V14.00,2013-05-26 04:02:00,
2013-05-25 21:07:00,60.2,52.6,29.93,NNE,16,0.0,1.0,76,0.00,,---,0.00,VWS V14.00,2013-05-26 04:07:00,
2013-05-25 21:12:00,60.0,52.4,29.93,NNE,28,0.0,3.0,76,0.00,,---,0.00,VWS V14.00,2013-05-26 04:12:00,
2013-05-25 21:17:00,59.9,52.7,29.93,NNE,28,0.0,3.0,77,0.00,,---,0.00,VWS V14.00,2013-05-26 04:17:00,
2013-05-25 21:22:00,59.8,52.6,29.93,NNE,28,0.0,3.0,77,0.00,,---,0.00,VWS V14.00,2013-05-26 04:22:00,
2013-05-25 21:27:00,59.7,52.8,29.93,NNE,28,0.0,3.0,78,0.00,,---,0.00,VWS V14.00,2013-05-26 04:27:00,
2013-05-25 21:32:00,59.6,52.7,29.93,NNE,28,0.0,3.0,78,0.00,,---,0.00,VWS V14.00,2013-05-26 04:32:00,
2013-05-25 21:37:00,59.5,53.0,29.93,NNE,31,1.0,1.0,79,0.00,,---,0.00,VWS V14.00,2013-05-26 04:37:00,
2013-05-25 21:42:00,59.4,52.9,29.93,NNE,31,0.0,1.0,79,0.00,,---,0.00,VWS V14.00,2013-05-26 04:42:00,
2013-05-25 21:47:00,59.3,52.8,29.93,NNE,31,0.0,1.0,79,0.00,,---,0.00,VWS V14.00,2013-05-26 04:47:00,
2013-05-25 21:52:00,59.1,52.6,29.93,NNE,23,0.0,2.0,79,0.00,,---,0.00,VWS V14.00,2013-05-26 04:52:00,
2013-05-25 21:57:00,59.0,52.5,29.93,NNE,23,0.0,2.0,79,0.00,,---,0.00,VWS V14.00,2013-05-26 04:57:00,
2013-05-25 22:02:00,58.9,52.4,29.93,NNE,23,0.0,2.0,79,0.00,,---,0.00,VWS V14.00,2013-05-26 05:02:00,
2013-05-25 22:07:00,58.9,53.1,29.94,NNE,23,0.0,1.0,81,0.00,,---,0.00,VWS V14.00,2013-05-26 05:07:00,
2013-05-25 22:12:00,58.7,52.9,29.94,NNE,27,2.0,2.0,81,0.00,,---,0.00,VWS V14.00,2013-05-26 05:12:00,
2013-05-25 22:17:00,58.5,52.4,29.95,South,180,3.0,5.0,80,0.00,,---,0.00,VWS V14.00,2013-05-26 05:17:00,
2013-05-25 22:22:00,58.3,52.2,29.95,SSW,196,1.0,6.0,80,0.00,,---,0.00,VWS V14.00,2013-05-26 05:22:00,
2013-05-25 22:27:00,58.2,52.4,29.95,SW,221,0.0,6.0,81,0.00,,---,0.00,VWS V14.00,2013-05-26 05:27:00,
2013-05-25 22:32:00,58.0,51.9,29.95,SSE,163,2.0,6.0,80,0.00,,---,0.00,VWS V14.00,2013-05-26 05:32:00,
2013-05-25 22:37:00,57.3,51.5,29.95,SSE,158,6.0,6.0,81,0.00,,---,0.00,VWS V14.00,2013-05-26 05:37:00,
2013-05-25 22:42:00,56.7,51.9,29.96,South,186,3.0,6.0,84,0.00,,---,0.00,VWS V14.00,2013-05-26 05:42:00,
2013-05-25 22:47:00,56.0,51.6,29.96,SSE,166,2.0,6.0,85,0.00,,---,0.00,VWS V14.00,2013-05-26 05:47:00,
2013-05-25 22:52:00,55.6,51.5,29.96,South,176,1.0,6.0,86,0.01,,---,0.01,VWS V14.00,2013-05-26 05:52:00,
2013-05-25 22:57:00,55.3,51.8,29.96,SSE,161,0.0,6.0,88,0.03,,---,0.03,VWS V14.00,2013-05-26 05:57:00,
2013-05-25 23:02:00,55.1,51.9,29.96,SSE,161,0.0,0.0,89,0.04,,---,0.04,VWS V14.00,2013-05-26 06:02:00,
2013-05-25 23:07:00,54.8,51.6,29.96,SSE,162,1.0,2.0,89,0.06,,---,0.06,VWS V14.00,2013-05-26 06:07:00,
2013-05-25 23:12:00,54.6,52.0,29.96,SE,128,1.0,2.0,91,0.07,,---,0.07,VWS V14.00,2013-05-26 06:12:00,
2013-05-25 23:17:00,54.5,51.9,29.96,ESE,119,1.0,2.0,91,0.08,,---,0.08,VWS V14.00,2013-05-26 06:17:00,
2013-05-25 23:22:00,54.2,51.9,29.96,ESE,119,0.0,2.0,92,0.09,,---,0.09,VWS V14.00,2013-05-26 06:22:00,
2013-05-25 23:27:00,54.1,52.1,29.96,ESE,119,0.0,2.0,93,0.09,,---,0.09,VWS V14.00,2013-05-26 06:27:00,
2013-05-25 23:32:00,54.0,52.0,29.96,SSE,163,4.0,4.0,93,0.09,,---,0.09,VWS V14.00,2013-05-26 06:32:00,
2013-05-25 23:37:00,53.9,51.9,29.96,SSE,161,1.0,4.0,93,0.09,,---,0.09,VWS V14.00,2013-05-26 06:37:00,
2013-05-25 23:42:00,53.8,51.8,29.97,South,171,1.0,4.0,93,0.09,,---,0.09,VWS V14.00,2013-05-26 06:42:00,
2013-05-25 23:47:00,53.7,51.7,29.97,SSE,151,1.0,4.0,93,0.09,,---,0.09,VWS V14.00,2013-05-26 06:47:00,
2013-05-25 23:52:00,53.7,52.0,29.97,SSE,151,0.0,4.0,94,0.10,,---,0.10,VWS V14.00,2013-05-26 06:52:00,
2013-05-25 23:57:00,53.9,52.2,29.97,South,185,1.0,4.0,94,0.11,,---,0.11,VWS V14.00,2013-05-26 06:57:00,